sensor_id;sensor_type;location;lat;lon;timestamp;P1;durP1;ratioP1;P2;durP2;ratioP2
67500;SDS011;54349;52.528;19.760;2022-09-30T00:01:53;8.20;;;5.20;;
67500;SDS011;54349;52.528;19.760;2022-09-30T00:04:22;9.00;;;5.30;;
67500;SDS011;54349;52.528;19.760;2022-09-30T00:06:53;7.90;;;5.20;;
67500;SDS011;54349;52.528;19.760;2022-09-30T00:09:21;7.70;;;5.20;;
67500;SDS011;54349;52.528;19.760;2022-09-30T00:11:49;8.20;;;5.60;;
67500;SDS011;54349;52.528;19.760;2022-09-30T00:14:20;8.30;;;5.60;;
67500;SDS011;54349;52.528;19.760;2022-09-30T00:16:50;8.20;;;5.10;;
67500;SDS011;54349;52.528;19.760;2022-09-30T00:19:18;8.10;;;5.30;;
67500;SDS011;54349;52.528;19.760;2022-09-30T00:21:46;8.40;;;5.50;;
67500;SDS011;54349;52.528;19.760;2022-09-30T00:24:14;8.90;;;5.60;;
67500;SDS011;54349;52.528;19.760;2022-09-30T00:26:42;7.70;;;5.20;;
67500;SDS011;54349;52.528;19.760;2022-09-30T00:29:10;8.00;;;5.40;;
67500;SDS011;54349;52.528;19.760;2022-09-30T00:31:38;7.40;;;5.30;;
67500;SDS011;54349;52.528;19.760;2022-09-30T00:34:07;10.20;;;5.90;;
67500;SDS011;54349;52.528;19.760;2022-09-30T00:41:55;8.80;;;5.90;;
67500;SDS011;54349;52.528;19.760;2022-09-30T00:45:04;8.30;;;5.20;;
67500;SDS011;54349;52.528;19.760;2022-09-30T00:47:44;9.20;;;5.80;;
67500;SDS011;54349;52.528;19.760;2022-09-30T00:50:38;8.80;;;5.60;;
67500;SDS011;54349;52.528;19.760;2022-09-30T00:53:23;9.80;;;5.80;;
67500;SDS011;54349;52.528;19.760;2022-09-30T00:58:38;8.80;;;5.30;;
67500;SDS011;54349;52.528;19.760;2022-09-30T01:01:12;8.70;;;5.80;;
67500;SDS011;54349;52.528;19.760;2022-09-30T01:06:22;8.70;;;5.50;;
67500;SDS011;54349;52.528;19.760;2022-09-30T01:08:52;8.60;;;5.70;;
67500;SDS011;54349;52.528;19.760;2022-09-30T01:11:21;7.90;;;5.40;;
67500;SDS011;54349;52.528;19.760;2022-09-30T01:13:52;8.40;;;5.40;;
67500;SDS011;54349;52.528;19.760;2022-09-30T01:28:31;9.50;;;5.90;;
67500;SDS011;54349;52.528;19.760;2022-09-30T01:35:02;8.30;;;5.80;;
67500;SDS011;54349;52.528;19.760;2022-09-30T01:37:51;8.10;;;5.30;;
67500;SDS011;54349;52.528;19.760;2022-09-30T01:46:07;7.70;;;5.30;;
67500;SDS011;54349;52.528;19.760;2022-09-30T01:49:22;9.30;;;6.10;;
67500;SDS011;54349;52.528;19.760;2022-09-30T01:52:05;7.50;;;5.30;;
67500;SDS011;54349;52.528;19.760;2022-09-30T01:54:59;9.10;;;5.50;;
67500;SDS011;54349;52.528;19.760;2022-09-30T01:57:55;8.30;;;5.50;;
67500;SDS011;54349;52.528;19.760;2022-09-30T02:00:31;8.10;;;5.60;;
67500;SDS011;54349;52.528;19.760;2022-09-30T02:03:08;8.00;;;5.80;;
67500;SDS011;54349;52.528;19.760;2022-09-30T02:05:52;9.80;;;5.60;;
67500;SDS011;54349;52.528;19.760;2022-09-30T02:08:35;9.20;;;5.80;;
67500;SDS011;54349;52.528;19.760;2022-09-30T02:11:14;8.40;;;5.70;;
67500;SDS011;54349;52.528;19.760;2022-09-30T02:16:42;8.60;;;5.90;;
67500;SDS011;54349;52.528;19.760;2022-09-30T02:19:43;8.50;;;5.80;;
67500;SDS011;54349;52.528;19.760;2022-09-30T02:22:21;8.10;;;5.70;;
67500;SDS011;54349;52.528;19.760;2022-09-30T02:24:58;8.30;;;5.50;;
67500;SDS011;54349;52.528;19.760;2022-09-30T02:27:38;8.50;;;5.80;;
67500;SDS011;54349;52.528;19.760;2022-09-30T02:30:12;7.70;;;5.70;;
67500;SDS011;54349;52.528;19.760;2022-09-30T02:32:56;8.30;;;5.80;;
67500;SDS011;54349;52.528;19.760;2022-09-30T02:35:32;8.60;;;5.70;;
67500;SDS011;54349;52.528;19.760;2022-09-30T02:38:12;8.90;;;6.10;;
67500;SDS011;54349;52.528;19.760;2022-09-30T02:40:52;8.80;;;6.10;;
67500;SDS011;54349;52.528;19.760;2022-09-30T02:43:29;8.60;;;5.90;;
67500;SDS011;54349;52.528;19.760;2022-09-30T02:49:10;8.50;;;5.90;;
67500;SDS011;54349;52.528;19.760;2022-09-30T02:52:07;8.20;;;5.40;;
67500;SDS011;54349;52.528;19.760;2022-09-30T03:00:25;8.40;;;5.80;;
67500;SDS011;54349;52.528;19.760;2022-09-30T03:02:57;7.70;;;5.70;;
67500;SDS011;54349;52.528;19.760;2022-09-30T03:05:30;7.70;;;5.30;;
67500;SDS011;54349;52.528;19.760;2022-09-30T03:07:59;8.70;;;5.40;;
67500;SDS011;54349;52.528;19.760;2022-09-30T03:10:29;7.60;;;5.50;;
67500;SDS011;54349;52.528;19.760;2022-09-30T03:33:54;9.10;;;5.70;;
67500;SDS011;54349;52.528;19.760;2022-09-30T03:39:58;7.90;;;5.80;;
67500;SDS011;54349;52.528;19.760;2022-09-30T03:42:46;7.90;;;5.70;;
67500;SDS011;54349;52.528;19.760;2022-09-30T03:45:54;7.20;;;5.10;;
67500;SDS011;54349;52.528;19.760;2022-09-30T03:48:30;8.90;;;5.50;;
67500;SDS011;54349;52.528;19.760;2022-09-30T03:51:00;8.10;;;5.30;;
67500;SDS011;54349;52.528;19.760;2022-09-30T03:53:30;7.60;;;5.50;;
67500;SDS011;54349;52.528;19.760;2022-09-30T03:56:05;7.60;;;5.40;;
67500;SDS011;54349;52.528;19.760;2022-09-30T03:58:36;8.00;;;5.70;;
67500;SDS011;54349;52.528;19.760;2022-09-30T04:01:16;7.50;;;5.20;;
67500;SDS011;54349;52.528;19.760;2022-09-30T04:03:52;8.00;;;5.50;;
67500;SDS011;54349;52.528;19.760;2022-09-30T04:06:22;7.80;;;5.40;;
67500;SDS011;54349;52.528;19.760;2022-09-30T04:08:52;7.10;;;5.30;;
67500;SDS011;54349;52.528;19.760;2022-09-30T04:11:20;9.70;;;5.70;;
67500;SDS011;54349;52.528;19.760;2022-09-30T04:13:48;9.00;;;5.70;;
67500;SDS011;54349;52.528;19.760;2022-09-30T04:16:16;8.30;;;5.20;;
67500;SDS011;54349;52.528;19.760;2022-09-30T04:18:44;8.20;;;5.50;;
67500;SDS011;54349;52.528;19.760;2022-09-30T04:21:14;8.60;;;5.70;;
67500;SDS011;54349;52.528;19.760;2022-09-30T04:23:43;8.20;;;5.70;;
67500;SDS011;54349;52.528;19.760;2022-09-30T04:26:13;7.80;;;5.40;;
67500;SDS011;54349;52.528;19.760;2022-09-30T04:28:43;7.50;;;5.20;;
67500;SDS011;54349;52.528;19.760;2022-09-30T04:31:12;8.00;;;5.30;;
67500;SDS011;54349;52.528;19.760;2022-09-30T04:33:43;9.50;;;5.80;;
67500;SDS011;54349;52.528;19.760;2022-09-30T04:36:12;11.30;;;6.20;;
67500;SDS011;54349;52.528;19.760;2022-09-30T04:38:41;15.00;;;6.80;;
67500;SDS011;54349;52.528;19.760;2022-09-30T04:41:12;15.70;;;7.00;;
67500;SDS011;54349;52.528;19.760;2022-09-30T04:43:46;14.50;;;6.40;;
67500;SDS011;54349;52.528;19.760;2022-09-30T04:46:19;16.10;;;7.20;;
67500;SDS011;54349;52.528;19.760;2022-09-30T04:48:49;16.60;;;7.20;;
67500;SDS011;54349;52.528;19.760;2022-09-30T04:51:19;14.70;;;7.00;;
67500;SDS011;54349;52.528;19.760;2022-09-30T04:53:48;14.00;;;7.00;;
67500;SDS011;54349;52.528;19.760;2022-09-30T04:56:17;15.40;;;6.80;;
67500;SDS011;54349;52.528;19.760;2022-09-30T04:58:45;18.90;;;7.70;;
67500;SDS011;54349;52.528;19.760;2022-09-30T05:01:16;16.50;;;6.80;;
67500;SDS011;54349;52.528;19.760;2022-09-30T05:03:45;15.00;;;7.10;;
67500;SDS011;54349;52.528;19.760;2022-09-30T05:06:15;17.40;;;6.80;;
67500;SDS011;54349;52.528;19.760;2022-09-30T05:08:43;14.20;;;6.50;;
67500;SDS011;54349;52.528;19.760;2022-09-30T05:11:19;16.20;;;7.50;;
67500;SDS011;54349;52.528;19.760;2022-09-30T05:13:48;15.50;;;7.20;;
67500;SDS011;54349;52.528;19.760;2022-09-30T05:16:18;16.20;;;7.00;;
67500;SDS011;54349;52.528;19.760;2022-09-30T05:18:47;15.80;;;7.10;;
67500;SDS011;54349;52.528;19.760;2022-09-30T05:21:18;14.00;;;7.20;;
67500;SDS011;54349;52.528;19.760;2022-09-30T05:23:47;15.20;;;7.40;;
67500;SDS011;54349;52.528;19.760;2022-09-30T05:26:15;17.50;;;7.40;;
67500;SDS011;54349;52.528;19.760;2022-09-30T05:28:43;13.60;;;7.00;;
67500;SDS011;54349;52.528;19.760;2022-09-30T05:31:12;14.20;;;7.40;;
67500;SDS011;54349;52.528;19.760;2022-09-30T05:33:41;13.40;;;7.00;;
67500;SDS011;54349;52.528;19.760;2022-09-30T05:36:13;15.40;;;7.10;;
67500;SDS011;54349;52.528;19.760;2022-09-30T05:38:42;12.90;;;6.50;;
67500;SDS011;54349;52.528;19.760;2022-09-30T05:41:12;14.10;;;6.90;;
67500;SDS011;54349;52.528;19.760;2022-09-30T05:43:42;13.50;;;7.00;;
67500;SDS011;54349;52.528;19.760;2022-09-30T05:46:14;12.80;;;6.70;;
67500;SDS011;54349;52.528;19.760;2022-09-30T05:48:43;14.50;;;6.70;;
67500;SDS011;54349;52.528;19.760;2022-09-30T05:51:12;12.20;;;7.10;;
67500;SDS011;54349;52.528;19.760;2022-09-30T05:53:41;14.00;;;7.10;;
67500;SDS011;54349;52.528;19.760;2022-09-30T05:56:10;13.60;;;6.80;;
67500;SDS011;54349;52.528;19.760;2022-09-30T05:58:39;14.20;;;6.90;;
67500;SDS011;54349;52.528;19.760;2022-09-30T06:01:13;14.70;;;7.00;;
67500;SDS011;54349;52.528;19.760;2022-09-30T06:03:44;15.50;;;7.20;;
67500;SDS011;54349;52.528;19.760;2022-09-30T06:06:14;14.10;;;7.00;;
67500;SDS011;54349;52.528;19.760;2022-09-30T06:08:42;14.00;;;6.90;;
67500;SDS011;54349;52.528;19.760;2022-09-30T06:11:14;14.10;;;6.90;;
67500;SDS011;54349;52.528;19.760;2022-09-30T06:13:45;14.00;;;6.80;;
67500;SDS011;54349;52.528;19.760;2022-09-30T06:16:15;12.10;;;6.80;;
67500;SDS011;54349;52.528;19.760;2022-09-30T06:18:45;12.00;;;6.60;;
67500;SDS011;54349;52.528;19.760;2022-09-30T06:21:15;12.10;;;6.70;;
67500;SDS011;54349;52.528;19.760;2022-09-30T06:23:44;11.70;;;6.70;;
67500;SDS011;54349;52.528;19.760;2022-09-30T06:26:13;14.30;;;6.90;;
67500;SDS011;54349;52.528;19.760;2022-09-30T06:28:42;12.20;;;6.60;;
67500;SDS011;54349;52.528;19.760;2022-09-30T06:31:11;13.40;;;6.60;;
67500;SDS011;54349;52.528;19.760;2022-09-30T06:33:39;12.90;;;6.70;;
67500;SDS011;54349;52.528;19.760;2022-09-30T06:36:07;12.70;;;6.30;;
67500;SDS011;54349;52.528;19.760;2022-09-30T06:38:35;10.90;;;6.40;;
67500;SDS011;54349;52.528;19.760;2022-09-30T06:41:07;12.10;;;6.10;;
67500;SDS011;54349;52.528;19.760;2022-09-30T06:43:36;13.00;;;7.00;;
67500;SDS011;54349;52.528;19.760;2022-09-30T06:46:24;13.80;;;6.80;;
67500;SDS011;54349;52.528;19.760;2022-09-30T06:48:58;11.60;;;6.40;;
67500;SDS011;54349;52.528;19.760;2022-09-30T06:51:39;12.00;;;7.10;;
67500;SDS011;54349;52.528;19.760;2022-09-30T06:54:07;11.90;;;6.90;;
67500;SDS011;54349;52.528;19.760;2022-09-30T06:56:35;11.50;;;6.60;;
67500;SDS011;54349;52.528;19.760;2022-09-30T06:59:04;11.20;;;6.40;;
67500;SDS011;54349;52.528;19.760;2022-09-30T07:01:32;10.50;;;6.70;;
67500;SDS011;54349;52.528;19.760;2022-09-30T07:04:00;11.60;;;6.30;;
67500;SDS011;54349;52.528;19.760;2022-09-30T07:06:34;12.00;;;6.50;;
67500;SDS011;54349;52.528;19.760;2022-09-30T07:09:02;11.50;;;7.00;;
67500;SDS011;54349;52.528;19.760;2022-09-30T07:11:31;10.20;;;6.40;;
67500;SDS011;54349;52.528;19.760;2022-09-30T07:13:59;10.40;;;6.20;;
67500;SDS011;54349;52.528;19.760;2022-09-30T07:16:27;11.00;;;6.50;;
67500;SDS011;54349;52.528;19.760;2022-09-30T07:18:57;11.50;;;6.70;;
67500;SDS011;54349;52.528;19.760;2022-09-30T07:21:26;11.80;;;6.40;;
67500;SDS011;54349;52.528;19.760;2022-09-30T07:23:57;11.50;;;6.60;;
67500;SDS011;54349;52.528;19.760;2022-09-30T07:26:27;11.00;;;6.20;;
67500;SDS011;54349;52.528;19.760;2022-09-30T07:28:56;11.80;;;6.60;;
67500;SDS011;54349;52.528;19.760;2022-09-30T07:31:25;11.60;;;6.10;;
67500;SDS011;54349;52.528;19.760;2022-09-30T07:34:01;11.90;;;6.50;;
67500;SDS011;54349;52.528;19.760;2022-09-30T07:36:36;10.60;;;6.20;;
67500;SDS011;54349;52.528;19.760;2022-09-30T07:39:08;10.60;;;5.90;;
67500;SDS011;54349;52.528;19.760;2022-09-30T07:41:38;9.90;;;6.40;;
67500;SDS011;54349;52.528;19.760;2022-09-30T07:44:12;10.60;;;6.40;;
67500;SDS011;54349;52.528;19.760;2022-09-30T07:46:42;14.30;;;6.70;;
67500;SDS011;54349;52.528;19.760;2022-09-30T07:49:14;12.30;;;6.00;;
67500;SDS011;54349;52.528;19.760;2022-09-30T07:51:54;10.90;;;6.20;;
67500;SDS011;54349;52.528;19.760;2022-09-30T07:54:27;11.10;;;6.60;;
67500;SDS011;54349;52.528;19.760;2022-09-30T07:56:58;10.80;;;6.40;;
67500;SDS011;54349;52.528;19.760;2022-09-30T07:59:43;11.20;;;6.80;;
67500;SDS011;54349;52.528;19.760;2022-09-30T08:02:16;12.20;;;6.80;;
67500;SDS011;54349;52.528;19.760;2022-09-30T08:04:45;11.00;;;6.30;;
67500;SDS011;54349;52.528;19.760;2022-09-30T08:07:15;10.30;;;6.30;;
67500;SDS011;54349;52.528;19.760;2022-09-30T08:09:44;11.60;;;6.20;;
67500;SDS011;54349;52.528;19.760;2022-09-30T08:12:12;11.60;;;6.50;;
67500;SDS011;54349;52.528;19.760;2022-09-30T08:14:40;11.20;;;6.50;;
67500;SDS011;54349;52.528;19.760;2022-09-30T08:17:08;12.30;;;6.50;;
67500;SDS011;54349;52.528;19.760;2022-09-30T08:19:37;10.00;;;6.50;;
67500;SDS011;54349;52.528;19.760;2022-09-30T08:22:08;10.40;;;6.40;;
67500;SDS011;54349;52.528;19.760;2022-09-30T08:24:37;10.20;;;6.00;;
67500;SDS011;54349;52.528;19.760;2022-09-30T08:27:05;10.20;;;6.00;;
67500;SDS011;54349;52.528;19.760;2022-09-30T08:29:33;10.40;;;6.50;;
67500;SDS011;54349;52.528;19.760;2022-09-30T08:32:21;9.20;;;5.90;;
67500;SDS011;54349;52.528;19.760;2022-09-30T08:34:49;9.30;;;6.00;;
67500;SDS011;54349;52.528;19.760;2022-09-30T08:37:17;10.40;;;6.20;;
67500;SDS011;54349;52.528;19.760;2022-09-30T08:39:45;10.10;;;6.30;;
67500;SDS011;54349;52.528;19.760;2022-09-30T08:42:23;8.90;;;6.30;;
67500;SDS011;54349;52.528;19.760;2022-09-30T08:47:57;9.40;;;6.00;;
67500;SDS011;54349;52.528;19.760;2022-09-30T08:50:54;10.60;;;6.20;;
67500;SDS011;54349;52.528;19.760;2022-09-30T08:53:40;9.20;;;6.00;;
67500;SDS011;54349;52.528;19.760;2022-09-30T08:56:19;9.80;;;6.20;;
67500;SDS011;54349;52.528;19.760;2022-09-30T08:58:55;8.70;;;6.30;;
67500;SDS011;54349;52.528;19.760;2022-09-30T09:01:50;10.70;;;6.40;;
67500;SDS011;54349;52.528;19.760;2022-09-30T09:06:57;9.70;;;5.80;;
67500;SDS011;54349;52.528;19.760;2022-09-30T09:09:55;10.10;;;6.00;;
67500;SDS011;54349;52.528;19.760;2022-09-30T09:16:09;9.40;;;6.10;;
67500;SDS011;54349;52.528;19.760;2022-09-30T09:18:43;9.70;;;6.10;;
67500;SDS011;54349;52.528;19.760;2022-09-30T09:21:58;9.50;;;5.80;;
67500;SDS011;54349;52.528;19.760;2022-09-30T09:32:34;7.90;;;5.60;;
67500;SDS011;54349;52.528;19.760;2022-09-30T09:35:28;9.00;;;5.90;;
67500;SDS011;54349;52.528;19.760;2022-09-30T09:38:23;8.70;;;5.50;;
67500;SDS011;54349;52.528;19.760;2022-09-30T09:44:16;8.90;;;5.80;;
67500;SDS011;54349;52.528;19.760;2022-09-30T09:47:00;8.40;;;5.50;;
67500;SDS011;54349;52.528;19.760;2022-09-30T09:49:53;10.20;;;5.90;;
67500;SDS011;54349;52.528;19.760;2022-09-30T09:52:39;9.40;;;5.90;;
67500;SDS011;54349;52.528;19.760;2022-09-30T09:55:12;9.40;;;5.90;;
67500;SDS011;54349;52.528;19.760;2022-09-30T09:57:44;10.10;;;5.80;;
67500;SDS011;54349;52.528;19.760;2022-09-30T10:00:23;8.30;;;5.90;;
67500;SDS011;54349;52.528;19.760;2022-09-30T10:08:33;9.50;;;5.80;;
67500;SDS011;54349;52.528;19.760;2022-09-30T10:11:15;9.70;;;5.70;;
67500;SDS011;54349;52.528;19.760;2022-09-30T10:13:47;8.80;;;5.50;;
67500;SDS011;54349;52.528;19.760;2022-09-30T10:16:30;9.80;;;5.90;;
67500;SDS011;54349;52.528;19.760;2022-09-30T10:19:16;7.70;;;5.60;;
67500;SDS011;54349;52.528;19.760;2022-09-30T10:24:37;12.50;;;5.80;;
67500;SDS011;54349;52.528;19.760;2022-09-30T10:27:32;9.70;;;5.50;;
67500;SDS011;54349;52.528;19.760;2022-09-30T10:30:02;9.90;;;5.70;;
67500;SDS011;54349;52.528;19.760;2022-09-30T10:32:31;8.10;;;5.40;;
67500;SDS011;54349;52.528;19.760;2022-09-30T10:35:03;8.50;;;5.50;;
67500;SDS011;54349;52.528;19.760;2022-09-30T10:37:50;7.90;;;5.20;;
67500;SDS011;54349;52.528;19.760;2022-09-30T10:40:26;8.90;;;5.30;;
67500;SDS011;54349;52.528;19.760;2022-09-30T10:43:35;8.80;;;5.60;;
67500;SDS011;54349;52.528;19.760;2022-09-30T10:46:24;8.40;;;5.40;;
67500;SDS011;54349;52.528;19.760;2022-09-30T10:48:57;8.10;;;5.10;;
67500;SDS011;54349;52.528;19.760;2022-09-30T10:51:29;8.50;;;5.40;;
67500;SDS011;54349;52.528;19.760;2022-09-30T10:54:01;8.70;;;5.20;;
67500;SDS011;54349;52.528;19.760;2022-09-30T10:56:43;8.40;;;5.40;;
67500;SDS011;54349;52.528;19.760;2022-09-30T10:59:22;9.90;;;5.50;;
67500;SDS011;54349;52.528;19.760;2022-09-30T11:02:50;10.60;;;5.80;;
67500;SDS011;54349;52.528;19.760;2022-09-30T11:05:23;10.00;;;5.30;;
67500;SDS011;54349;52.528;19.760;2022-09-30T11:11:09;7.60;;;4.90;;
67500;SDS011;54349;52.528;19.760;2022-09-30T11:16:38;7.00;;;4.60;;
67500;SDS011;54349;52.528;19.760;2022-09-30T11:25:01;7.90;;;5.10;;
67500;SDS011;54349;52.528;19.760;2022-09-30T11:28:34;8.90;;;4.90;;
67500;SDS011;54349;52.528;19.760;2022-09-30T11:31:30;8.40;;;5.00;;
67500;SDS011;54349;52.528;19.760;2022-09-30T11:37:00;8.20;;;4.60;;
67500;SDS011;54349;52.528;19.760;2022-09-30T11:39:49;6.80;;;4.70;;
67500;SDS011;54349;52.528;19.760;2022-09-30T11:43:03;7.20;;;4.70;;
67500;SDS011;54349;52.528;19.760;2022-09-30T11:48:16;7.60;;;4.80;;
67500;SDS011;54349;52.528;19.760;2022-09-30T11:54:06;7.00;;;4.50;;
67500;SDS011;54349;52.528;19.760;2022-09-30T11:59:32;6.40;;;4.60;;
67500;SDS011;54349;52.528;19.760;2022-09-30T12:07:45;7.30;;;4.50;;
67500;SDS011;54349;52.528;19.760;2022-09-30T12:10:24;6.80;;;4.50;;
67500;SDS011;54349;52.528;19.760;2022-09-30T12:13:05;7.60;;;4.80;;
67500;SDS011;54349;52.528;19.760;2022-09-30T12:15:41;7.00;;;4.80;;
67500;SDS011;54349;52.528;19.760;2022-09-30T12:18:21;8.10;;;4.90;;
67500;SDS011;54349;52.528;19.760;2022-09-30T12:21:00;7.40;;;4.90;;
67500;SDS011;54349;52.528;19.760;2022-09-30T12:26:19;6.60;;;4.80;;
67500;SDS011;54349;52.528;19.760;2022-09-30T12:29:01;7.10;;;4.60;;
67500;SDS011;54349;52.528;19.760;2022-09-30T12:32:41;6.10;;;4.60;;
67500;SDS011;54349;52.528;19.760;2022-09-30T12:36:09;7.50;;;4.80;;
67500;SDS011;54349;52.528;19.760;2022-09-30T12:48:43;6.50;;;4.50;;
67500;SDS011;54349;52.528;19.760;2022-09-30T12:51:29;6.50;;;4.40;;
67500;SDS011;54349;52.528;19.760;2022-09-30T12:57:05;6.00;;;4.10;;
67500;SDS011;54349;52.528;19.760;2022-09-30T12:59:38;6.20;;;4.30;;
67500;SDS011;54349;52.528;19.760;2022-09-30T13:02:33;6.20;;;4.20;;
67500;SDS011;54349;52.528;19.760;2022-09-30T13:15:42;5.70;;;4.40;;
67500;SDS011;54349;52.528;19.760;2022-09-30T13:34:27;6.90;;;4.30;;
67500;SDS011;54349;52.528;19.760;2022-09-30T13:37:03;6.50;;;4.20;;
67500;SDS011;54349;52.528;19.760;2022-09-30T13:39:52;6.20;;;4.40;;
67500;SDS011;54349;52.528;19.760;2022-09-30T13:42:26;7.40;;;4.30;;
67500;SDS011;54349;52.528;19.760;2022-09-30T13:45:37;5.90;;;4.10;;
67500;SDS011;54349;52.528;19.760;2022-09-30T13:48:12;5.40;;;4.00;;
67500;SDS011;54349;52.528;19.760;2022-09-30T13:50:52;6.70;;;4.40;;
67500;SDS011;54349;52.528;19.760;2022-09-30T13:53:33;7.00;;;4.20;;
67500;SDS011;54349;52.528;19.760;2022-09-30T13:56:23;6.80;;;4.30;;
67500;SDS011;54349;52.528;19.760;2022-09-30T14:11:10;6.50;;;3.90;;
67500;SDS011;54349;52.528;19.760;2022-09-30T14:22:29;7.40;;;4.20;;
67500;SDS011;54349;52.528;19.760;2022-09-30T14:24:57;6.00;;;3.70;;
67500;SDS011;54349;52.528;19.760;2022-09-30T14:30:15;6.60;;;4.00;;
67500;SDS011;54349;52.528;19.760;2022-09-30T14:32:52;6.80;;;4.10;;
67500;SDS011;54349;52.528;19.760;2022-09-30T14:35:28;5.60;;;3.70;;
67500;SDS011;54349;52.528;19.760;2022-09-30T14:38:04;6.00;;;4.00;;
67500;SDS011;54349;52.528;19.760;2022-09-30T14:40:38;6.40;;;4.00;;
67500;SDS011;54349;52.528;19.760;2022-09-30T14:43:13;6.90;;;4.50;;
67500;SDS011;54349;52.528;19.760;2022-09-30T14:45:50;6.30;;;4.10;;
67500;SDS011;54349;52.528;19.760;2022-09-30T14:48:25;6.90;;;3.90;;
67500;SDS011;54349;52.528;19.760;2022-09-30T14:53:31;5.90;;;3.70;;
67500;SDS011;54349;52.528;19.760;2022-09-30T14:56:02;5.90;;;3.80;;
67500;SDS011;54349;52.528;19.760;2022-09-30T15:01:19;6.70;;;4.00;;
67500;SDS011;54349;52.528;19.760;2022-09-30T15:03:57;6.10;;;3.70;;
67500;SDS011;54349;52.528;19.760;2022-09-30T15:06:32;5.80;;;3.70;;
67500;SDS011;54349;52.528;19.760;2022-09-30T15:11:42;6.50;;;3.60;;
67500;SDS011;54349;52.528;19.760;2022-09-30T15:14:22;5.60;;;3.30;;
67500;SDS011;54349;52.528;19.760;2022-09-30T15:16:54;5.40;;;3.60;;
67500;SDS011;54349;52.528;19.760;2022-09-30T15:19:32;6.70;;;4.10;;
67500;SDS011;54349;52.528;19.760;2022-09-30T15:22:05;6.40;;;3.60;;
67500;SDS011;54349;52.528;19.760;2022-09-30T15:24:38;6.00;;;3.80;;
67500;SDS011;54349;52.528;19.760;2022-09-30T15:27:18;5.70;;;3.40;;
67500;SDS011;54349;52.528;19.760;2022-09-30T15:29:58;5.60;;;3.30;;
67500;SDS011;54349;52.528;19.760;2022-09-30T15:33:02;6.60;;;3.50;;
67500;SDS011;54349;52.528;19.760;2022-09-30T15:35:33;5.70;;;3.60;;
67500;SDS011;54349;52.528;19.760;2022-09-30T15:38:14;4.80;;;3.30;;
67500;SDS011;54349;52.528;19.760;2022-09-30T15:41:01;6.50;;;3.60;;
67500;SDS011;54349;52.528;19.760;2022-09-30T15:43:40;5.20;;;3.40;;
67500;SDS011;54349;52.528;19.760;2022-09-30T15:46:26;5.90;;;3.80;;
67500;SDS011;54349;52.528;19.760;2022-09-30T15:49:28;6.60;;;3.70;;
67500;SDS011;54349;52.528;19.760;2022-09-30T15:52:25;5.90;;;3.50;;
67500;SDS011;54349;52.528;19.760;2022-09-30T15:55:51;5.20;;;3.20;;
67500;SDS011;54349;52.528;19.760;2022-09-30T15:58:38;4.90;;;3.30;;
67500;SDS011;54349;52.528;19.760;2022-09-30T16:01:31;6.30;;;3.60;;
67500;SDS011;54349;52.528;19.760;2022-09-30T16:04:23;6.20;;;3.70;;
67500;SDS011;54349;52.528;19.760;2022-09-30T16:07:08;5.80;;;3.70;;
67500;SDS011;54349;52.528;19.760;2022-09-30T16:09:46;6.50;;;3.70;;
67500;SDS011;54349;52.528;19.760;2022-09-30T16:12:20;6.30;;;3.70;;
67500;SDS011;54349;52.528;19.760;2022-09-30T16:14:53;6.50;;;3.80;;
67500;SDS011;54349;52.528;19.760;2022-09-30T16:17:32;5.70;;;3.60;;
67500;SDS011;54349;52.528;19.760;2022-09-30T16:20:23;5.90;;;3.90;;
67500;SDS011;54349;52.528;19.760;2022-09-30T16:22:55;6.30;;;3.40;;
67500;SDS011;54349;52.528;19.760;2022-09-30T16:25:31;5.90;;;3.80;;
67500;SDS011;54349;52.528;19.760;2022-09-30T16:28:12;6.10;;;3.30;;
67500;SDS011;54349;52.528;19.760;2022-09-30T16:30:46;6.00;;;3.50;;
67500;SDS011;54349;52.528;19.760;2022-09-30T16:33:17;6.20;;;3.70;;
67500;SDS011;54349;52.528;19.760;2022-09-30T16:35:45;6.30;;;3.90;;
67500;SDS011;54349;52.528;19.760;2022-09-30T16:38:16;5.60;;;3.90;;
67500;SDS011;54349;52.528;19.760;2022-09-30T16:40:45;5.90;;;3.50;;
67500;SDS011;54349;52.528;19.760;2022-09-30T16:43:14;5.70;;;3.80;;
67500;SDS011;54349;52.528;19.760;2022-09-30T16:45:43;6.50;;;4.10;;
67500;SDS011;54349;52.528;19.760;2022-09-30T16:48:14;6.30;;;3.90;;
67500;SDS011;54349;52.528;19.760;2022-09-30T16:53:30;7.60;;;4.00;;
67500;SDS011;54349;52.528;19.760;2022-09-30T16:55:59;6.80;;;4.00;;
67500;SDS011;54349;52.528;19.760;2022-09-30T16:58:28;7.00;;;4.10;;
67500;SDS011;54349;52.528;19.760;2022-09-30T17:00:58;5.40;;;3.80;;
67500;SDS011;54349;52.528;19.760;2022-09-30T17:03:27;5.90;;;3.90;;
67500;SDS011;54349;52.528;19.760;2022-09-30T17:05:58;6.60;;;4.10;;
67500;SDS011;54349;52.528;19.760;2022-09-30T17:08:27;7.00;;;4.10;;
67500;SDS011;54349;52.528;19.760;2022-09-30T17:10:57;7.00;;;4.10;;
67500;SDS011;54349;52.528;19.760;2022-09-30T17:13:25;5.90;;;3.80;;
67500;SDS011;54349;52.528;19.760;2022-09-30T17:15:56;6.50;;;4.10;;
67500;SDS011;54349;52.528;19.760;2022-09-30T17:18:24;6.40;;;4.20;;
67500;SDS011;54349;52.528;19.760;2022-09-30T17:20:53;6.80;;;4.30;;
67500;SDS011;54349;52.528;19.760;2022-09-30T17:23:24;6.50;;;4.10;;
67500;SDS011;54349;52.528;19.760;2022-09-30T17:25:52;7.40;;;4.40;;
67500;SDS011;54349;52.528;19.760;2022-09-30T17:28:22;7.20;;;4.20;;
67500;SDS011;54349;52.528;19.760;2022-09-30T17:30:51;7.70;;;4.40;;
67500;SDS011;54349;52.528;19.760;2022-09-30T17:33:19;6.10;;;3.90;;
67500;SDS011;54349;52.528;19.760;2022-09-30T17:36:01;6.60;;;4.00;;
67500;SDS011;54349;52.528;19.760;2022-09-30T17:38:35;6.60;;;4.30;;
67500;SDS011;54349;52.528;19.760;2022-09-30T17:41:05;7.10;;;4.30;;
67500;SDS011;54349;52.528;19.760;2022-09-30T17:43:54;6.50;;;4.40;;
67500;SDS011;54349;52.528;19.760;2022-09-30T17:46:40;7.50;;;4.30;;
67500;SDS011;54349;52.528;19.760;2022-09-30T17:49:11;6.80;;;4.10;;
67500;SDS011;54349;52.528;19.760;2022-09-30T17:51:42;6.50;;;4.30;;
67500;SDS011;54349;52.528;19.760;2022-09-30T17:54:11;6.30;;;4.30;;
67500;SDS011;54349;52.528;19.760;2022-09-30T17:56:39;7.70;;;4.70;;
67500;SDS011;54349;52.528;19.760;2022-09-30T17:59:09;6.40;;;4.00;;
67500;SDS011;54349;52.528;19.760;2022-09-30T18:01:38;6.20;;;4.30;;
67500;SDS011;54349;52.528;19.760;2022-09-30T18:04:07;6.50;;;4.40;;
67500;SDS011;54349;52.528;19.760;2022-09-30T18:06:36;7.50;;;4.20;;
67500;SDS011;54349;52.528;19.760;2022-09-30T18:09:05;7.30;;;4.70;;
67500;SDS011;54349;52.528;19.760;2022-09-30T18:11:35;6.20;;;4.10;;
67500;SDS011;54349;52.528;19.760;2022-09-30T18:14:11;6.20;;;4.10;;
67500;SDS011;54349;52.528;19.760;2022-09-30T18:16:41;7.30;;;4.20;;
67500;SDS011;54349;52.528;19.760;2022-09-30T18:19:29;7.10;;;4.50;;
67500;SDS011;54349;52.528;19.760;2022-09-30T18:22:00;7.30;;;4.10;;
67500;SDS011;54349;52.528;19.760;2022-09-30T18:24:31;7.30;;;4.50;;
67500;SDS011;54349;52.528;19.760;2022-09-30T18:27:19;6.00;;;4.10;;
67500;SDS011;54349;52.528;19.760;2022-09-30T18:29:50;6.70;;;4.40;;
67500;SDS011;54349;52.528;19.760;2022-09-30T18:32:18;7.40;;;4.60;;
67500;SDS011;54349;52.528;19.760;2022-09-30T18:34:57;7.20;;;4.90;;
67500;SDS011;54349;52.528;19.760;2022-09-30T18:37:27;7.90;;;4.70;;
67500;SDS011;54349;52.528;19.760;2022-09-30T18:39:57;6.80;;;4.40;;
67500;SDS011;54349;52.528;19.760;2022-09-30T18:42:26;7.90;;;4.80;;
67500;SDS011;54349;52.528;19.760;2022-09-30T18:44:55;6.50;;;4.60;;
67500;SDS011;54349;52.528;19.760;2022-09-30T18:47:24;7.10;;;4.50;;